createdAt,value
2018-03-17T00:00:17.571Z,1009.13
2018-03-17T00:01:17.515Z,1009.13
2018-03-17T00:02:17.460Z,1009.09
2018-03-17T00:03:17.400Z,1009.15
2018-03-17T00:04:17.349Z,1009.07
2018-03-17T00:05:17.287Z,1009.31
2018-03-17T00:06:17.240Z,1009.16
2018-03-17T00:07:17.174Z,1009.05
2018-03-17T00:08:17.118Z,1009.11
2018-03-17T00:09:17.061Z,1009.09
2018-03-17T00:10:17.005Z,1009.07
2018-03-17T00:11:16.948Z,1009.11
2018-03-17T00:12:16.891Z,1009.24
2018-03-17T00:13:16.834Z,1009.18
2018-03-17T00:14:16.779Z,1009.12
2018-03-17T00:15:16.721Z,1009.16
2018-03-17T00:16:16.664Z,1009.16
2018-03-17T00:17:16.608Z,1009.18
2018-03-17T00:18:16.551Z,1009.15
2018-03-17T00:19:16.494Z,1009.08
2018-03-17T00:20:16.437Z,1009.14
2018-03-17T00:21:16.383Z,1009.21
2018-03-17T00:22:16.324Z,1009.11
2018-03-17T00:23:16.267Z,1009.19
2018-03-17T00:24:16.211Z,1009.23
2018-03-17T00:25:16.154Z,1009.18
2018-03-17T00:26:16.099Z,1009.29
2018-03-17T00:27:16.095Z,1009.14
2018-03-17T00:28:15.983Z,1009.08
2018-03-17T00:29:15.926Z,1009.12
2018-03-17T00:30:15.869Z,1009.11
2018-03-17T00:31:15.814Z,1009.18
2018-03-17T00:32:15.755Z,1009.16
2018-03-17T00:33:15.698Z,1009.21
2018-03-17T00:34:15.641Z,1009.18
2018-03-17T00:35:15.583Z,1009.20
2018-03-17T00:36:15.526Z,1009.48
2018-03-17T00:37:15.470Z,1009.20
2018-03-17T00:38:15.413Z,1009.18
2018-03-17T00:39:15.355Z,1009.13
2018-03-17T00:40:15.298Z,1009.22
2018-03-17T00:41:15.241Z,1009.22
2018-03-17T00:42:15.184Z,1009.32
2018-03-17T00:43:15.126Z,1009.21
2018-03-17T00:44:15.069Z,1009.22
2018-03-17T00:45:15.012Z,1009.29
2018-03-17T00:46:14.955Z,1009.16
2018-03-17T00:47:14.897Z,1009.20
2018-03-17T00:48:14.839Z,1009.21
2018-03-17T00:49:14.783Z,1009.29
2018-03-17T00:50:14.726Z,1009.20
2018-03-17T00:51:14.675Z,1009.37
2018-03-17T00:52:14.644Z,1009.20
2018-03-17T00:53:14.553Z,1009.20
2018-03-17T00:54:14.497Z,1009.24
2018-03-17T00:55:14.439Z,1009.21
2018-03-17T00:56:14.382Z,1009.28
2018-03-17T00:57:14.328Z,1009.28
2018-03-17T00:58:14.274Z,1009.21
2018-03-17T00:59:14.210Z,1009.24
2018-03-17T01:00:14.153Z,1009.27
2018-03-17T01:01:14.096Z,1009.25
2018-03-17T01:02:14.039Z,1009.31
2018-03-17T01:03:13.981Z,1009.34
2018-03-17T01:04:13.924Z,1009.20
2018-03-17T01:05:13.872Z,1009.14
2018-03-17T01:06:13.810Z,1009.20
2018-03-17T01:07:13.756Z,1009.17
2018-03-17T01:08:13.694Z,1009.22
2018-03-17T01:09:13.638Z,1009.18
2018-03-17T01:10:13.581Z,1009.13
2018-03-17T01:11:13.522Z,1009.18
2018-03-17T01:12:13.466Z,1009.19
2018-03-17T01:13:13.408Z,1009.20
2018-03-17T01:14:13.352Z,1009.29
2018-03-17T01:15:13.294Z,1009.13
2018-03-17T01:16:13.238Z,1009.17
2018-03-17T01:17:13.180Z,1009.23
2018-03-17T01:18:13.123Z,1009.14
2018-03-17T01:19:13.065Z,1009.16
2018-03-17T01:20:13.008Z,1009.23
2018-03-17T01:21:12.959Z,1009.21
2018-03-17T01:22:12.894Z,1009.31
2018-03-17T01:23:12.836Z,1009.28
2018-03-17T01:24:12.779Z,1009.31
2018-03-17T01:25:12.722Z,1009.25
2018-03-17T01:26:12.666Z,1009.36
2018-03-17T01:27:12.614Z,1009.29
2018-03-17T01:28:12.550Z,1009.35
2018-03-17T01:29:12.493Z,1009.30
2018-03-17T01:30:12.442Z,1009.19
2018-03-17T01:31:12.378Z,1009.29
2018-03-17T01:32:12.371Z,1009.29
2018-03-17T01:33:12.263Z,1009.20
2018-03-17T01:34:12.206Z,1009.29
2018-03-17T01:35:12.148Z,1009.21
2018-03-17T01:36:12.091Z,1009.17
2018-03-17T01:37:12.033Z,1009.16
2018-03-17T01:38:11.976Z,1009.19
2018-03-17T01:39:11.918Z,1009.13
2018-03-17T01:40:11.911Z,1009.07
2018-03-17T01:41:11.805Z,1009.09
2018-03-17T01:42:11.747Z,1009.05
2018-03-17T01:43:11.688Z,1009.01
2018-03-17T01:44:11.631Z,1008.96
2018-03-17T01:45:11.573Z,1009.05
2018-03-17T01:46:11.517Z,1009.02
2018-03-17T01:47:11.458Z,1008.94
2018-03-17T01:48:11.401Z,1009.03
2018-03-17T01:49:11.344Z,1009.07
2018-03-17T01:50:11.286Z,1009.07
2018-03-17T01:51:11.228Z,1009.08
2018-03-17T01:52:11.170Z,1009.02
2018-03-17T01:53:11.113Z,1009.04
2018-03-17T01:54:11.056Z,1008.95
2018-03-17T01:55:10.997Z,1008.99
2018-03-17T01:56:10.940Z,1008.93
2018-03-17T01:57:10.882Z,1008.90
2018-03-17T01:58:10.825Z,1008.91
2018-03-17T01:59:10.801Z,1008.90
2018-03-17T02:00:10.709Z,1008.93
2018-03-17T02:01:10.651Z,1008.87
2018-03-17T02:02:10.594Z,1008.82
2018-03-17T02:03:10.537Z,1008.84
2018-03-17T02:04:10.477Z,1008.77
2018-03-17T02:05:10.419Z,1008.73
2018-03-17T02:06:10.362Z,1008.69
2018-03-17T02:07:10.303Z,1008.75
2018-03-17T02:08:10.247Z,1008.83
2018-03-17T02:09:10.188Z,1008.79
2018-03-17T02:10:10.130Z,1008.83
2018-03-17T02:11:10.072Z,1008.84
2018-03-17T02:12:10.014Z,1008.89
2018-03-17T02:13:09.956Z,1008.78
2018-03-17T02:14:09.899Z,1008.86
2018-03-17T02:15:09.840Z,1008.77
2018-03-17T02:16:09.782Z,1008.89
2018-03-17T02:17:09.725Z,1008.79
2018-03-17T02:18:09.667Z,1008.85
2018-03-17T02:19:09.608Z,1008.81
2018-03-17T02:20:09.591Z,1008.85
2018-03-17T02:21:09.499Z,1008.89
2018-03-17T02:22:09.447Z,1008.88
2018-03-17T02:23:09.377Z,1008.85
2018-03-17T02:24:09.319Z,1008.83
2018-03-17T02:25:09.262Z,1008.83
2018-03-17T02:26:09.204Z,1008.89
2018-03-17T02:27:09.146Z,1008.90
2018-03-17T02:28:09.088Z,1008.86
2018-03-17T02:29:09.030Z,1008.97
2018-03-17T02:30:08.983Z,1008.93
2018-03-17T02:31:08.964Z,1009.00
2018-03-17T02:32:08.857Z,1008.99
2018-03-17T02:33:08.849Z,1008.98
2018-03-17T02:34:08.742Z,1008.95
2018-03-17T02:35:08.683Z,1009.00
2018-03-17T02:36:08.626Z,1009.03
2018-03-17T02:37:08.568Z,1008.92
2018-03-17T02:38:08.510Z,1008.99
2018-03-17T02:39:08.454Z,1008.99
2018-03-17T02:40:08.395Z,1008.91
2018-03-17T02:41:08.337Z,1008.96
2018-03-17T02:42:08.306Z,1009.00
2018-03-17T02:43:08.221Z,1009.01
2018-03-17T02:44:08.173Z,1008.94
2018-03-17T02:45:08.105Z,1008.93
2018-03-17T02:46:08.049Z,1008.85
2018-03-17T02:47:07.989Z,1009.14
2018-03-17T02:48:07.932Z,1009.02
2018-03-17T02:49:07.873Z,1008.96
2018-03-17T02:50:07.820Z,1009.00
2018-03-17T02:51:07.757Z,1009.05
2018-03-17T02:52:07.699Z,1008.98
2018-03-17T02:53:07.642Z,1009.05
2018-03-17T02:54:07.583Z,1009.11
2018-03-17T02:55:07.531Z,1009.19
2018-03-17T02:56:07.467Z,1009.12
2018-03-17T02:57:07.409Z,1009.26
2018-03-17T02:58:07.351Z,1009.17
2018-03-17T02:59:07.297Z,1009.19
2018-03-17T03:00:07.234Z,1009.21
2018-03-17T03:01:07.181Z,1009.17
2018-03-17T03:02:07.118Z,1009.23
2018-03-17T03:03:07.060Z,1009.28
2018-03-17T03:04:07.001Z,1009.29
2018-03-17T03:05:06.945Z,1009.24
2018-03-17T03:06:06.887Z,1009.25
2018-03-17T03:07:06.828Z,1009.40
2018-03-17T03:08:06.770Z,1009.30
2018-03-17T03:09:06.711Z,1009.32
2018-03-17T03:10:06.654Z,1009.32
2018-03-17T03:11:06.595Z,1009.29
2018-03-17T03:12:06.537Z,1009.34
2018-03-17T03:13:06.480Z,1009.29
2018-03-17T03:14:06.422Z,1009.32
2018-03-17T03:15:06.369Z,1009.35
2018-03-17T03:16:06.305Z,1009.46
2018-03-17T03:17:06.247Z,1009.40
2018-03-17T03:18:06.192Z,1009.38
2018-03-17T03:19:06.131Z,1009.37
2018-03-17T03:20:06.073Z,1009.33
2018-03-17T03:21:06.015Z,1009.41
2018-03-17T03:22:05.957Z,1009.48
2018-03-17T03:23:05.900Z,1009.34
2018-03-17T03:24:05.841Z,1009.34
2018-03-17T03:25:05.784Z,1009.35
2018-03-17T03:26:05.725Z,1009.31
2018-03-17T03:27:05.670Z,1009.37
2018-03-17T03:28:05.610Z,1009.43
2018-03-17T03:29:05.702Z,1009.44
2018-03-17T03:30:05.494Z,1009.35
2018-03-17T03:31:05.436Z,1009.46
2018-03-17T03:32:05.377Z,1009.47
2018-03-17T03:33:05.319Z,1009.45
2018-03-17T03:34:05.261Z,1009.45
2018-03-17T03:35:05.203Z,1009.44
2018-03-17T03:36:05.145Z,1009.46
2018-03-17T03:37:05.087Z,1009.40
2018-03-17T03:38:05.029Z,1009.49
2018-03-17T03:39:04.974Z,1009.45
2018-03-17T03:40:04.913Z,1009.51
2018-03-17T03:41:04.856Z,1009.47
2018-03-17T03:42:04.801Z,1009.49
2018-03-17T03:43:04.746Z,1009.48
2018-03-17T03:44:04.682Z,1009.54
2018-03-17T03:45:04.624Z,1009.43
2018-03-17T03:46:04.572Z,1009.68
2018-03-17T03:47:04.508Z,1009.42
2018-03-17T03:48:04.450Z,1009.47
2018-03-17T03:49:04.397Z,1009.57
2018-03-17T03:50:04.335Z,1009.54
2018-03-17T03:51:04.276Z,1009.49
2018-03-17T03:52:04.219Z,1009.50
2018-03-17T03:53:04.161Z,1009.46
2018-03-17T03:54:04.104Z,1009.47
2018-03-17T03:55:04.045Z,1009.44
2018-03-17T03:56:03.987Z,1009.51
2018-03-17T03:57:03.929Z,1009.46
2018-03-17T03:58:03.874Z,1009.55
2018-03-17T03:59:03.813Z,1009.57
2018-03-17T04:00:03.755Z,1009.58
2018-03-17T04:01:03.697Z,1009.56
2018-03-17T04:02:03.639Z,1009.54
2018-03-17T04:03:03.587Z,1009.59
2018-03-17T04:04:03.523Z,1009.66
2018-03-17T04:05:03.465Z,1009.60
2018-03-17T04:06:03.407Z,1009.51
2018-03-17T04:07:03.348Z,1009.65
2018-03-17T04:08:03.292Z,1009.63
2018-03-17T04:09:03.233Z,1009.61
2018-03-17T04:10:03.175Z,1009.61
2018-03-17T04:11:03.118Z,1009.64
2018-03-17T04:12:03.058Z,1009.67
2018-03-17T04:13:03.001Z,1009.62
2018-03-17T04:14:02.944Z,1009.75
2018-03-17T04:15:02.883Z,1009.73
2018-03-17T04:16:02.826Z,1009.75
2018-03-17T04:17:02.768Z,1009.63
2018-03-17T04:18:02.710Z,1009.68
2018-03-17T04:19:02.650Z,1009.67
2018-03-17T04:20:02.593Z,1009.69
2018-03-17T04:21:02.534Z,1009.60
2018-03-17T04:22:02.477Z,1009.62
2018-03-17T04:23:02.419Z,1009.62
2018-03-17T04:24:02.360Z,1009.55
2018-03-17T04:25:02.302Z,1009.59
2018-03-17T04:26:02.244Z,1009.56
2018-03-17T04:27:02.185Z,1009.57
2018-03-17T04:28:02.177Z,1009.61
2018-03-17T04:29:02.071Z,1009.57
2018-03-17T04:30:02.013Z,1009.62
2018-03-17T04:31:01.952Z,1009.60
2018-03-17T04:32:01.894Z,1009.68
2018-03-17T04:33:01.836Z,1009.59
2018-03-17T04:34:01.828Z,1009.64
2018-03-17T04:35:01.719Z,1009.65
2018-03-17T04:36:01.663Z,1009.68
2018-03-17T04:37:01.604Z,1009.77
2018-03-17T04:38:01.545Z,1009.77
2018-03-17T04:39:01.540Z,1009.72
2018-03-17T04:40:01.430Z,1009.72
2018-03-17T04:41:01.370Z,1009.65
2018-03-17T04:42:01.312Z,1009.68
2018-03-17T04:43:01.254Z,1009.80
2018-03-17T04:44:01.196Z,1009.71
2018-03-17T04:45:01.137Z,1009.78
2018-03-17T04:46:01.080Z,1009.78
2018-03-17T04:47:01.024Z,1009.75
2018-03-17T04:48:00.963Z,1009.83
2018-03-17T04:49:00.905Z,1009.83
2018-03-17T04:50:00.854Z,1009.71
2018-03-17T04:51:00.788Z,1009.69
2018-03-17T04:52:00.731Z,1009.75
2018-03-17T04:53:00.672Z,1009.75
2018-03-17T04:54:00.614Z,1009.72
2018-03-17T04:55:00.556Z,1009.80
2018-03-17T04:56:00.497Z,1009.85
2018-03-17T04:57:00.440Z,1009.77
2018-03-17T04:58:00.388Z,1009.71
2018-03-17T04:59:00.324Z,1009.77
2018-03-17T05:00:00.319Z,1009.77
2018-03-17T05:01:00.205Z,1009.77
2018-03-17T05:02:00.147Z,1009.77
2018-03-17T05:03:00.088Z,1009.86
2018-03-17T05:04:00.035Z,1009.78
2018-03-17T05:04:59.971Z,1009.87
2018-03-17T05:05:59.915Z,1009.80
2018-03-17T05:06:59.854Z,1009.84
2018-03-17T05:07:59.796Z,1009.87
2018-03-17T05:08:59.738Z,1009.89
2018-03-17T05:09:59.690Z,1009.82
2018-03-17T05:10:59.621Z,1009.84
2018-03-17T05:11:59.562Z,1009.90
2018-03-17T05:12:59.505Z,1009.83
2018-03-17T05:13:59.446Z,1009.95
2018-03-17T05:14:59.387Z,1009.97
2018-03-17T05:15:59.379Z,1009.94
2018-03-17T05:16:59.271Z,1009.96
2018-03-17T05:17:59.213Z,1009.97
2018-03-17T05:18:59.153Z,1009.92
2018-03-17T05:19:59.096Z,1009.87
2018-03-17T05:20:59.038Z,1009.96
2018-03-17T05:21:58.983Z,1009.97
2018-03-17T05:22:58.920Z,1009.97
2018-03-17T05:23:58.862Z,1009.95
2018-03-17T05:24:58.804Z,1009.93
2018-03-17T05:25:58.746Z,1009.90
2018-03-17T05:26:58.687Z,1009.92
2018-03-17T05:27:58.629Z,1009.95
2018-03-17T05:28:58.571Z,1009.99
2018-03-17T05:29:58.514Z,1010.01
2018-03-17T05:30:58.457Z,1009.97
2018-03-17T05:31:58.395Z,1009.99
2018-03-17T05:32:58.337Z,1009.98
2018-03-17T05:33:58.284Z,1010.02
2018-03-17T05:34:58.225Z,1010.09
2018-03-17T05:35:58.162Z,1010.01
2018-03-17T05:36:58.104Z,1010.10
2018-03-17T05:37:58.094Z,1010.02
2018-03-17T05:38:57.988Z,1009.99
2018-03-17T05:39:57.930Z,1009.95
2018-03-17T05:40:57.872Z,1010.03
2018-03-17T05:41:57.814Z,1009.99
2018-03-17T05:42:57.754Z,1010.00
2018-03-17T05:43:57.697Z,1010.00
2018-03-17T05:44:57.689Z,1010.04
2018-03-17T05:45:57.582Z,1010.06
2018-03-17T05:46:57.522Z,1010.16
2018-03-17T05:47:57.463Z,1010.24
2018-03-17T05:48:57.406Z,1010.14
2018-03-17T05:49:57.350Z,1010.19
2018-03-17T05:50:57.290Z,1010.18
2018-03-17T05:51:57.232Z,1010.28
2018-03-17T05:52:57.177Z,1010.19
2018-03-17T05:53:57.116Z,1010.19
2018-03-17T05:54:57.063Z,1010.20
2018-03-17T05:55:57.001Z,1010.17
2018-03-17T05:56:56.944Z,1010.16
2018-03-17T05:57:56.884Z,1010.20
2018-03-17T05:58:56.827Z,1010.26
2018-03-17T05:59:56.774Z,1010.33
2018-03-17T06:00:56.710Z,1010.29
2018-03-17T06:01:56.654Z,1010.35
2018-03-17T06:02:56.593Z,1010.31
2018-03-17T06:03:56.535Z,1010.35
2018-03-17T06:04:56.477Z,1010.30
2018-03-17T06:05:56.419Z,1010.22
2018-03-17T06:06:56.364Z,1010.29
2018-03-17T06:07:56.303Z,1010.37
2018-03-17T06:08:56.250Z,1010.37
2018-03-17T06:09:56.187Z,1010.35
2018-03-17T06:10:56.128Z,1010.38
2018-03-17T06:11:56.070Z,1010.37
2018-03-17T06:12:56.012Z,1010.37
2018-03-17T06:13:55.955Z,1010.32
2018-03-17T06:14:55.896Z,1010.35
2018-03-17T06:15:55.838Z,1010.50
2018-03-17T06:16:55.781Z,1010.38
2018-03-17T06:17:55.723Z,1010.39
2018-03-17T06:18:55.665Z,1010.41
2018-03-17T06:19:55.607Z,1010.38
2018-03-17T06:20:55.550Z,1010.51
2018-03-17T06:21:55.493Z,1010.50
2018-03-17T06:22:55.434Z,1010.52
2018-03-17T06:23:55.377Z,1010.50
2018-03-17T06:24:55.319Z,1010.51
2018-03-17T06:25:55.261Z,1010.55
2018-03-17T06:26:55.247Z,1010.54
2018-03-17T06:27:55.146Z,1010.58
2018-03-17T06:28:55.088Z,1010.55
2018-03-17T06:29:55.031Z,1010.56
2018-03-17T06:30:54.973Z,1010.53
2018-03-17T06:31:54.920Z,1010.54
2018-03-17T06:32:54.858Z,1010.65
2018-03-17T06:33:54.802Z,1010.69
2018-03-17T06:34:54.748Z,1010.73
2018-03-17T06:35:54.686Z,1010.85
2018-03-17T06:36:54.629Z,1010.71
2018-03-17T06:37:54.572Z,1010.85
2018-03-17T06:38:54.517Z,1010.84
2018-03-17T06:39:54.456Z,1010.72
2018-03-17T06:40:54.401Z,1010.79
2018-03-17T06:41:54.342Z,1010.84
2018-03-17T06:42:54.284Z,1010.76
2018-03-17T06:43:54.227Z,1010.82
2018-03-17T06:44:54.175Z,1010.80
2018-03-17T06:45:54.113Z,1010.88
2018-03-17T06:46:54.057Z,1010.76
2018-03-17T06:47:53.997Z,1010.89
2018-03-17T06:48:53.941Z,1010.89
2018-03-17T06:49:53.934Z,1010.93
2018-03-17T06:50:53.825Z,1010.76
2018-03-17T06:51:53.768Z,1011.12
2018-03-17T06:52:53.711Z,1011.34
2018-03-17T06:53:53.655Z,1011.58
2018-03-17T06:54:53.597Z,1011.39
2018-03-17T06:55:53.543Z,1011.45
2018-03-17T06:56:53.487Z,1011.71
2018-03-17T06:57:53.426Z,1011.45
2018-03-17T06:58:53.383Z,1011.45
2018-03-17T06:59:53.318Z,1011.45
2018-03-17T07:00:53.258Z,1011.38
2018-03-17T07:01:53.203Z,1011.44
2018-03-17T07:02:53.149Z,1011.44
2018-03-17T07:03:53.093Z,1011.44
2018-03-17T07:04:53.040Z,1011.38
2018-03-17T07:05:52.994Z,1011.30
2018-03-17T07:06:52.932Z,1011.33
2018-03-17T07:07:52.880Z,1011.32
2018-03-17T07:08:52.827Z,1011.35
2018-03-17T07:09:52.776Z,1011.43
2018-03-17T07:10:52.727Z,1011.69
2018-03-17T07:11:52.672Z,1011.74
2018-03-17T07:12:52.628Z,1011.95
2018-03-17T07:13:52.572Z,1011.81
2018-03-17T07:14:52.521Z,1011.74
2018-03-17T07:15:52.476Z,1011.79
2018-03-17T07:16:52.422Z,1011.46
2018-03-17T07:17:52.377Z,1011.73
2018-03-17T07:18:52.320Z,1011.50
2018-03-17T07:19:52.270Z,1011.65
2018-03-17T07:20:52.232Z,1011.19
2018-03-17T07:21:52.171Z,1011.82
2018-03-17T07:22:52.120Z,1011.81
2018-03-17T07:23:52.070Z,1011.34
2018-03-17T07:24:52.021Z,1012.07
2018-03-17T07:25:51.971Z,1012.30
2018-03-17T07:26:51.921Z,1011.39
2018-03-17T07:27:51.874Z,1011.54
2018-03-17T07:28:51.823Z,1011.06
2018-03-17T07:29:51.774Z,1011.49
2018-03-17T07:30:51.725Z,1011.72
2018-03-17T07:31:51.675Z,1011.48
2018-03-17T07:32:51.626Z,1011.35
2018-03-17T07:33:51.580Z,1012.01
2018-03-17T07:34:51.529Z,1011.30
2018-03-17T07:35:51.477Z,1011.22
2018-03-17T07:36:51.429Z,1011.54
2018-03-17T07:37:51.386Z,1011.57
2018-03-17T07:38:51.331Z,1011.61
2018-03-17T07:39:51.277Z,1011.68
2018-03-17T07:40:51.227Z,1011.72
2018-03-17T07:41:51.177Z,1011.56
2018-03-17T07:42:51.126Z,1011.34
2018-03-17T07:43:51.076Z,1011.70
2018-03-17T07:44:51.025Z,1011.69
2018-03-17T07:45:50.975Z,1011.84
2018-03-17T07:46:50.925Z,1011.74
2018-03-17T07:47:50.926Z,1011.79
2018-03-17T07:48:50.829Z,1011.68
2018-03-17T07:49:50.778Z,1011.85
2018-03-17T07:50:50.730Z,1011.75
2018-03-17T07:51:50.681Z,1011.82
2018-03-17T07:52:50.634Z,1011.85
2018-03-17T07:53:50.586Z,1012.10
2018-03-17T07:54:50.537Z,1012.09
2018-03-17T07:55:50.489Z,1012.30
2018-03-17T07:56:50.442Z,1012.11
2018-03-17T07:57:50.394Z,1012.35
2018-03-17T07:58:50.346Z,1012.36
2018-03-17T07:59:50.299Z,1012.28
2018-03-17T08:00:50.252Z,1012.27
2018-03-17T08:01:50.208Z,1012.29
2018-03-17T08:02:50.169Z,1012.27
2018-03-17T08:03:50.112Z,1012.22
2018-03-17T08:04:50.065Z,1011.40
2018-03-17T08:05:50.019Z,1012.24
2018-03-17T08:06:49.972Z,1011.40
2018-03-17T08:07:49.925Z,1012.20
2018-03-17T08:08:49.878Z,1012.15
2018-03-17T08:09:49.832Z,1012.25
2018-03-17T08:10:49.783Z,1012.16
2018-03-17T08:11:49.737Z,1012.27
2018-03-17T08:12:49.690Z,1012.28
2018-03-17T08:13:49.644Z,1012.49
2018-03-17T08:14:49.596Z,1012.56
2018-03-17T08:15:49.550Z,1012.63
2018-03-17T08:16:49.508Z,1012.25
2018-03-17T08:17:49.460Z,1011.68
2018-03-17T08:18:49.413Z,1011.60
2018-03-17T08:19:49.367Z,1011.65
2018-03-17T08:20:49.323Z,1011.81
2018-03-17T08:21:49.278Z,1011.77
2018-03-17T08:22:49.232Z,1011.75
2018-03-17T08:23:49.187Z,1011.73
2018-03-17T08:24:49.142Z,1011.70
2018-03-17T08:25:49.097Z,1011.83
2018-03-17T08:26:49.054Z,1011.70
2018-03-17T08:27:49.007Z,1011.76
2018-03-17T08:28:48.962Z,1011.55
2018-03-17T08:29:48.918Z,1011.38
2018-03-17T08:30:48.872Z,1011.18
2018-03-17T08:31:48.827Z,1011.29
2018-03-17T08:32:48.782Z,1011.25
2018-03-17T08:33:48.737Z,1011.35
2018-03-17T08:34:48.689Z,1011.36
2018-03-17T08:35:48.643Z,1011.45
2018-03-17T08:36:48.606Z,1011.42
2018-03-17T08:37:48.549Z,1011.41
2018-03-17T08:38:48.500Z,1011.40
2018-03-17T08:39:48.452Z,1011.33
2018-03-17T08:40:48.404Z,1011.35
2018-03-17T08:41:48.356Z,1011.35
2018-03-17T08:42:48.306Z,1011.35
2018-03-17T08:43:48.273Z,1011.37
2018-03-17T08:44:48.208Z,1011.35
2018-03-17T08:45:48.158Z,1011.38
2018-03-17T08:46:48.113Z,1011.31
2018-03-17T08:47:48.058Z,1011.26
2018-03-17T08:48:48.012Z,1011.30
2018-03-17T08:49:47.957Z,1011.25
2018-03-17T08:50:47.907Z,1011.35
2018-03-17T08:51:47.856Z,1011.32
2018-03-17T08:52:47.808Z,1011.23
2018-03-17T08:53:47.752Z,1011.30
2018-03-17T08:54:47.700Z,1011.28
2018-03-17T08:55:47.648Z,1011.27
2018-03-17T08:56:47.612Z,1011.22
2018-03-17T08:57:47.547Z,1011.26
2018-03-17T08:58:47.570Z,1011.31
2018-03-17T08:59:47.445Z,1011.31
2018-03-17T09:00:47.386Z,1011.23
2018-03-17T09:01:47.333Z,1011.22
2018-03-17T09:02:47.288Z,1011.19
2018-03-17T09:03:47.228Z,1011.24
2018-03-17T09:04:47.175Z,1011.20
2018-03-17T09:05:47.124Z,1011.21
2018-03-17T09:06:47.069Z,1011.16
2018-03-17T09:07:47.016Z,1011.14
2018-03-17T09:08:46.963Z,1011.12
2018-03-17T09:09:46.911Z,1011.12
2018-03-17T09:10:46.870Z,1011.13
2018-03-17T09:11:46.804Z,1011.08
2018-03-17T09:12:46.752Z,1011.09
2018-03-17T09:13:46.698Z,1011.07
2018-03-17T09:14:46.646Z,1010.94
2018-03-17T09:15:46.592Z,1011.03
2018-03-17T09:16:46.538Z,1010.91
2018-03-17T09:17:46.485Z,1011.08
2018-03-17T09:18:46.431Z,1011.08
2018-03-17T09:19:46.384Z,1011.09
2018-03-17T09:20:46.325Z,1011.01
2018-03-17T09:21:46.328Z,1010.98
2018-03-17T09:22:46.217Z,1011.04
2018-03-17T09:23:46.164Z,1011.01
2018-03-17T09:24:46.111Z,1010.95
2018-03-17T09:25:46.058Z,1010.93
2018-03-17T09:26:46.008Z,1011.01
2018-03-17T09:27:45.951Z,1011.10
2018-03-17T09:28:45.898Z,1010.92
2018-03-17T09:29:45.845Z,1010.92
2018-03-17T09:30:45.791Z,1010.98
2018-03-17T09:31:45.737Z,1010.91
2018-03-17T09:32:45.685Z,1010.93
2018-03-17T09:33:45.633Z,1010.95
2018-03-17T09:34:45.629Z,1010.94
2018-03-17T09:35:45.527Z,1010.86
2018-03-17T09:36:45.475Z,1010.88
2018-03-17T09:37:45.423Z,1010.94
2018-03-17T09:38:45.374Z,1011.05
2018-03-17T09:39:45.320Z,1010.86
2018-03-17T09:40:45.268Z,1010.96
2018-03-17T09:41:45.218Z,1010.98
2018-03-17T09:42:45.166Z,1010.89
2018-03-17T09:43:45.117Z,1011.09
2018-03-17T09:44:45.067Z,1010.86
2018-03-17T09:45:45.019Z,1010.93
2018-03-17T09:46:44.969Z,1010.93
2018-03-17T09:47:44.921Z,1010.97
2018-03-17T09:48:44.872Z,1011.05
2018-03-17T09:49:44.823Z,1010.90
2018-03-17T09:50:44.773Z,1010.93
2018-03-17T09:51:44.724Z,1010.87
2018-03-17T09:52:44.675Z,1010.75
2018-03-17T09:53:44.626Z,1010.80
2018-03-17T09:54:44.574Z,1010.86
2018-03-17T09:55:44.524Z,1010.86
2018-03-17T09:56:44.474Z,1010.73
2018-03-17T09:57:44.426Z,1010.80
2018-03-17T09:58:44.372Z,1010.79
2018-03-17T09:59:44.320Z,1010.86
2018-03-17T10:00:44.269Z,1010.63
2018-03-17T10:01:44.223Z,1010.65
2018-03-17T10:02:44.165Z,1010.72
2018-03-17T10:03:44.113Z,1010.62
2018-03-17T10:04:44.061Z,1010.74
2018-03-17T10:05:44.021Z,1010.67
2018-03-17T10:06:43.955Z,1010.65
2018-03-17T10:07:43.903Z,1010.67
2018-03-17T10:08:43.850Z,1010.62
2018-03-17T10:09:43.797Z,1010.74
2018-03-17T10:10:43.742Z,1010.66
2018-03-17T10:11:43.690Z,1010.67
2018-03-17T10:12:43.640Z,1010.72
2018-03-17T10:13:43.583Z,1010.78
2018-03-17T10:14:43.529Z,1010.74
2018-03-17T10:15:43.475Z,1010.87
2018-03-17T10:16:43.422Z,1010.92
2018-03-17T10:17:43.368Z,1010.80
2018-03-17T10:18:43.314Z,1010.74
2018-03-17T10:19:43.260Z,1010.70
2018-03-17T10:20:43.207Z,1010.60
2018-03-17T10:21:43.153Z,1010.73
2018-03-17T10:22:43.099Z,1010.69
2018-03-17T10:23:43.045Z,1010.68
2018-03-17T10:24:42.992Z,1010.64
2018-03-17T10:25:42.938Z,1010.63
2018-03-17T10:26:42.883Z,1011.00
2018-03-17T10:27:42.837Z,1010.72
2018-03-17T10:28:42.777Z,1010.59
2018-03-17T10:29:42.723Z,1010.78
2018-03-17T10:30:42.668Z,1010.81
2018-03-17T10:31:42.615Z,1010.79
2018-03-17T10:32:42.561Z,1010.73
2018-03-17T10:33:42.509Z,1010.68
2018-03-17T10:34:42.456Z,1010.61
2018-03-17T10:35:42.399Z,1010.66
2018-03-17T10:36:42.346Z,1010.80
2018-03-17T10:37:42.292Z,1010.54
2018-03-17T10:38:42.238Z,1010.56
2018-03-17T10:39:42.185Z,1010.42
2018-03-17T10:40:42.131Z,1010.56
2018-03-17T10:41:42.077Z,1010.61
2018-03-17T10:42:42.023Z,1010.60
2018-03-17T10:43:41.999Z,1010.55
2018-03-17T10:44:41.916Z,1010.54
2018-03-17T10:45:41.863Z,1010.62
2018-03-17T10:46:41.808Z,1010.61
2018-03-17T10:47:41.756Z,1010.56
2018-03-17T10:48:41.702Z,1010.56
2018-03-17T10:49:41.648Z,1010.52
2018-03-17T10:50:41.594Z,1010.46
2018-03-17T10:51:41.545Z,1010.53
2018-03-17T10:52:41.486Z,1010.40
2018-03-17T10:53:41.432Z,1010.46
2018-03-17T10:54:41.377Z,1010.38
2018-03-17T10:55:41.324Z,1010.44
2018-03-17T10:56:41.269Z,1010.41
2018-03-17T10:57:41.215Z,1010.39
2018-03-17T10:58:41.160Z,1010.37
2018-03-17T10:59:41.106Z,1010.30
2018-03-17T11:00:41.053Z,1010.41
2018-03-17T11:01:40.998Z,1010.49
2018-03-17T11:02:40.943Z,1010.54
2018-03-17T11:03:40.889Z,1010.35
2018-03-17T11:04:40.835Z,1010.41
2018-03-17T11:05:40.780Z,1010.56
2018-03-17T11:06:40.725Z,1010.43
2018-03-17T11:07:40.671Z,1010.41
2018-03-17T11:08:40.617Z,1010.39
2018-03-17T11:09:40.562Z,1010.27
2018-03-17T11:10:40.508Z,1010.18
2018-03-17T11:11:40.506Z,1010.19
2018-03-17T11:12:40.399Z,1010.28
2018-03-17T11:13:40.345Z,1010.14
2018-03-17T11:14:40.292Z,1010.19
2018-03-17T11:15:40.240Z,1010.20
2018-03-17T11:16:40.181Z,1010.28
2018-03-17T11:17:40.288Z,1010.24
2018-03-17T11:18:40.072Z,1010.13
2018-03-17T11:19:40.018Z,1010.20
2018-03-17T11:20:39.963Z,1010.19
2018-03-17T11:21:39.909Z,1010.16
2018-03-17T11:22:39.854Z,1010.16
2018-03-17T11:23:39.799Z,1010.26
2018-03-17T11:24:39.745Z,1010.27
2018-03-17T11:25:39.690Z,1010.13
2018-03-17T11:26:39.635Z,1010.21
2018-03-17T11:27:39.580Z,1010.24
2018-03-17T11:28:39.525Z,1010.25
2018-03-17T11:29:39.473Z,1010.20
2018-03-17T11:30:39.415Z,1010.16
2018-03-17T11:31:39.360Z,1010.15
2018-03-17T11:32:39.311Z,1010.20
2018-03-17T11:33:39.252Z,1010.22
2018-03-17T11:34:39.199Z,1010.20
2018-03-17T11:35:39.142Z,1010.23
2018-03-17T11:36:39.088Z,1010.22
2018-03-17T11:37:39.034Z,1010.15
2018-03-17T11:38:39.016Z,1010.15
2018-03-17T11:39:38.925Z,1010.22
2018-03-17T11:40:38.903Z,1010.22
2018-03-17T11:41:38.815Z,1010.21
2018-03-17T11:42:38.759Z,1010.24
2018-03-17T11:43:38.706Z,1010.18
2018-03-17T11:44:38.651Z,1010.16
2018-03-17T11:45:38.597Z,1010.30
2018-03-17T11:46:38.541Z,1010.22
2018-03-17T11:47:38.487Z,1010.30
2018-03-17T11:48:38.432Z,1010.22
2018-03-17T11:49:38.378Z,1010.29
2018-03-17T11:50:38.322Z,1010.33
2018-03-17T11:51:38.268Z,1010.21
2018-03-17T11:52:38.214Z,1010.30
2018-03-17T11:53:38.160Z,1010.22
2018-03-17T11:54:38.131Z,1010.19
2018-03-17T11:55:38.051Z,1010.23
2018-03-17T11:56:37.996Z,1010.11
2018-03-17T11:57:37.943Z,1010.19
2018-03-17T11:58:37.887Z,1010.15
2018-03-17T11:59:37.833Z,1010.14
2018-03-17T12:00:37.778Z,1010.12
2018-03-17T12:01:37.725Z,1010.20
2018-03-17T12:02:37.671Z,1010.11
2018-03-17T12:03:37.618Z,1010.05
2018-03-17T12:04:37.561Z,1010.26